createdAt,value
2018-03-22T00:01:02.026Z,23.21
2018-03-22T00:02:11.022Z,23.21
2018-03-22T00:03:20.035Z,23.31
2018-03-22T00:04:28.771Z,23.21
2018-03-22T00:05:37.844Z,23.31
2018-03-22T00:06:46.776Z,23.21
2018-03-22T00:07:55.782Z,23.4
2018-03-22T00:09:04.796Z,23.21
2018-03-22T00:10:13.818Z,23.31
2018-03-22T00:11:23.076Z,23.31
2018-03-22T00:12:32.347Z,23.21
2018-03-22T00:13:41.306Z,23.21
2018-03-22T00:14:50.531Z,23.21
2018-03-22T00:15:59.506Z,23.31
2018-03-22T00:17:08.776Z,23.3
2018-03-22T00:18:18.067Z,23.21
2018-03-22T00:19:27.053Z,23.2
2018-03-22T00:20:35.803Z,23.2
2018-03-22T00:21:44.810Z,23.1
2018-03-22T00:22:54.098Z,23.2
2018-03-22T00:24:03.095Z,23.2
2018-03-22T00:25:12.331Z,23.1
2018-03-22T00:26:21.411Z,23.1
2018-03-22T00:27:30.398Z,23.2
2018-03-22T00:28:39.639Z,23
2018-03-22T00:29:48.598Z,23
2018-03-22T00:30:57.345Z,23.1
2018-03-22T00:32:06.598Z,23
2018-03-22T00:33:16.200Z,23.2
2018-03-22T00:34:25.301Z,23.1
2018-03-22T00:35:34.625Z,23.2
2018-03-22T00:36:43.949Z,23
2018-03-22T00:37:52.976Z,23.2
2018-03-22T00:39:02.751Z,23.2
2018-03-22T00:40:11.699Z,23.1
2018-03-22T00:41:21.183Z,23.2
2018-03-22T00:42:30.714Z,23.1
2018-03-22T00:43:39.938Z,23.1
2018-03-22T00:44:49.200Z,23.2
2018-03-22T00:45:58.438Z,23.2
2018-03-22T00:47:07.681Z,23.1
2018-03-22T00:48:16.659Z,22.91
2018-03-22T00:49:25.426Z,23
2018-03-22T00:50:34.641Z,23
2018-03-22T00:51:43.911Z,23.1
2018-03-22T00:52:52.961Z,23.2
2018-03-22T00:54:01.729Z,23
2018-03-22T00:55:11.011Z,23
2018-03-22T00:56:19.999Z,22.81
2018-03-22T00:57:29.766Z,23.1
2018-03-22T00:58:39.121Z,23.1
2018-03-22T00:59:48.354Z,23.1
2018-03-22T01:00:58.106Z,23.1
2018-03-22T01:02:06.848Z,23.1
2018-03-22T01:03:15.569Z,23.1
2018-03-22T01:04:24.325Z,23.1
2018-03-22T01:05:33.360Z,22.91
2018-03-22T01:06:42.616Z,23.3
2018-03-22T01:07:51.928Z,22.91
2018-03-22T01:09:00.915Z,22.91
2018-03-22T01:10:10.493Z,22.91
2018-03-22T01:11:19.489Z,23.39
2018-03-22T01:12:29.028Z,22.9
2018-03-22T01:13:38.266Z,22.8
2018-03-22T01:14:47.756Z,22.9
2018-03-22T01:15:56.456Z,22.9
2018-03-22T01:17:05.174Z,22.61
2018-03-22T01:18:13.907Z,22.9
2018-03-22T01:19:23.159Z,22.9
2018-03-22T01:20:32.424Z,22.52
2018-03-22T01:21:41.694Z,22.52
2018-03-22T01:22:51.190Z,22.8
2018-03-22T01:24:00.082Z,22.71
2018-03-22T01:25:09.638Z,22.52
2018-03-22T01:26:18.637Z,22.61
2018-03-22T01:27:27.881Z,22.52
2018-03-22T01:28:36.617Z,22.52
2018-03-22T01:29:46.138Z,22.61
2018-03-22T01:30:55.123Z,22.61
2018-03-22T01:32:04.105Z,22.61
2018-03-22T01:33:13.367Z,22.52
2018-03-22T01:34:23.141Z,22.71
2018-03-22T01:35:31.840Z,22.71
2018-03-22T01:36:41.090Z,22.52
2018-03-22T01:37:50.088Z,22.71
2018-03-22T01:38:59.058Z,22.61
2018-03-22T01:40:08.396Z,22.71
2018-03-22T01:41:17.371Z,22.71
2018-03-22T01:42:26.581Z,22.71
2018-03-22T01:43:35.850Z,22.71
2018-03-22T01:44:45.115Z,22.71
2018-03-22T01:45:54.092Z,22.71
2018-03-22T01:47:02.777Z,22.71
2018-03-22T01:48:12.267Z,22.71
2018-03-22T01:49:21.269Z,22.61
2018-03-22T01:50:30.497Z,22.71
2018-03-22T01:51:39.519Z,22.61
2018-03-22T01:52:48.230Z,22.71
2018-03-22T01:53:57.529Z,22.61
2018-03-22T01:55:06.811Z,22.61
2018-03-22T01:56:15.802Z,22.71
2018-03-22T01:57:24.484Z,22.61
2018-03-22T01:58:33.498Z,22.61
2018-03-22T01:59:42.925Z,22.61
2018-03-22T02:00:51.929Z,22.61
2018-03-22T02:02:01.170Z,22.71
2018-03-22T02:03:10.453Z,22.61
2018-03-22T02:04:19.673Z,22.61
2018-03-22T02:05:28.672Z,22.61
2018-03-22T02:06:37.388Z,22.61
2018-03-22T02:07:46.653Z,22.61
2018-03-22T02:08:55.867Z,22.71
2018-03-22T02:10:05.119Z,22.61
2018-03-22T02:11:13.832Z,22.61
2018-03-22T02:12:22.840Z,22.71
2018-03-22T02:13:31.639Z,22.61
2018-03-22T02:14:40.367Z,22.61
2018-03-22T02:15:49.318Z,22.61
2018-03-22T02:16:58.292Z,22.61
2018-03-22T02:18:07.537Z,22.71
2018-03-22T02:19:16.248Z,22.52
2018-03-22T02:20:25.492Z,22.61
2018-03-22T02:21:34.789Z,22.61
2018-03-22T02:22:44.051Z,22.61
2018-03-22T02:23:53.152Z,22.52
2018-03-22T02:25:02.120Z,22.61
2018-03-22T02:26:11.146Z,22.9
2018-03-22T02:27:20.090Z,22.61
2018-03-22T02:28:28.798Z,22.71
2018-03-22T02:29:37.574Z,22.61
2018-03-22T02:30:46.849Z,22.61
2018-03-22T02:31:55.573Z,22.61
2018-03-22T02:33:05.106Z,22.61
2018-03-22T02:34:14.361Z,22.71
2018-03-22T02:35:23.103Z,22.61
2018-03-22T02:36:32.096Z,22.71
2018-03-22T02:37:41.092Z,22.71
2018-03-22T02:38:50.147Z,22.71
2018-03-22T02:39:59.631Z,22.61
2018-03-22T02:41:08.653Z,22.69
2018-03-22T02:42:17.918Z,22.61
2018-03-22T02:43:27.174Z,22.61
2018-03-22T02:44:36.428Z,22.61
2018-03-22T02:45:46.225Z,22.61
2018-03-22T02:46:55.685Z,22.69
2018-03-22T02:48:04.725Z,22.5
2018-03-22T02:49:14.304Z,22.61
2018-03-22T02:50:23.822Z,22.71
2018-03-22T02:51:32.825Z,22.61
2018-03-22T02:52:42.054Z,22.6
2018-03-22T02:53:51.292Z,22.71
2018-03-22T02:55:00.839Z,22.71
2018-03-22T02:56:10.071Z,22.69
2018-03-22T02:57:19.300Z,22.71
2018-03-22T02:58:28.278Z,22.61
2018-03-22T02:59:37.287Z,22.61
2018-03-22T03:00:46.352Z,22.61
2018-03-22T03:01:55.350Z,22.69
2018-03-22T03:03:04.354Z,22.6
2018-03-22T03:04:13.700Z,22.61
2018-03-22T03:05:23.313Z,22.61
2018-03-22T03:06:32.818Z,22.71
2018-03-22T03:07:42.456Z,22.71
2018-03-22T03:08:51.513Z,22.71
2018-03-22T03:10:00.636Z,22.89
2018-03-22T03:11:10.024Z,22.8
2018-03-22T03:12:19.300Z,22.79
2018-03-22T03:13:28.154Z,22.6
2018-03-22T03:14:37.394Z,22.89
2018-03-22T03:15:47.208Z,22.89
2018-03-22T03:16:56.484Z,22.79
2018-03-22T03:18:05.916Z,22.79
2018-03-22T03:19:14.931Z,22.61
2018-03-22T03:20:23.969Z,22.61
2018-03-22T03:21:32.982Z,22.6
2018-03-22T03:22:42.098Z,22.89
2018-03-22T03:23:51.092Z,22.6
2018-03-22T03:25:00.602Z,22.69
2018-03-22T03:26:10.129Z,22.8
2018-03-22T03:27:19.120Z,22.89
2018-03-22T03:28:28.380Z,22.89
2018-03-22T03:29:37.656Z,22.6
2018-03-22T03:30:46.510Z,22.6
2018-03-22T03:31:55.285Z,22.69
2018-03-22T03:33:04.277Z,22.6
2018-03-22T03:34:13.611Z,22.69
2018-03-22T03:35:23.409Z,22.69
2018-03-22T03:36:32.443Z,22.6
2018-03-22T03:37:41.692Z,22.89
2018-03-22T03:38:50.944Z,22.6
2018-03-22T03:39:59.634Z,22.6
2018-03-22T03:41:09.029Z,22.69
2018-03-22T03:42:18.129Z,22.6
2018-03-22T03:43:27.686Z,22.6
2018-03-22T03:44:36.684Z,22.69
2018-03-22T03:45:45.699Z,22.6
2018-03-22T03:46:54.711Z,22.6
2018-03-22T03:48:03.710Z,22.69
2018-03-22T03:49:12.398Z,22.69
2018-03-22T03:50:21.945Z,22.6
2018-03-22T03:51:30.907Z,22.6
2018-03-22T03:52:39.915Z,22.69
2018-03-22T03:53:48.709Z,22.69
2018-03-22T03:54:57.728Z,22.69
2018-03-22T03:56:06.786Z,22.69
2018-03-22T03:57:15.763Z,22.69
2018-03-22T03:58:25.030Z,22.6
2018-03-22T03:59:34.535Z,22.6
2018-03-22T04:00:44.096Z,22.6
2018-03-22T04:01:53.648Z,22.6
2018-03-22T04:03:02.756Z,22.69
2018-03-22T04:04:11.747Z,22.5
2018-03-22T04:05:20.980Z,22.69
2018-03-22T04:06:30.478Z,22.69
2018-03-22T04:07:39.696Z,22.5
2018-03-22T04:08:48.968Z,22.6
2018-03-22T04:09:58.194Z,22.5
2018-03-22T04:11:07.404Z,22.6
2018-03-22T04:12:16.377Z,22.5
2018-03-22T04:13:25.613Z,22.5
2018-03-22T04:14:34.549Z,22.69
2018-03-22T04:15:44.046Z,22.5
2018-03-22T04:16:53.071Z,22.5
2018-03-22T04:18:02.035Z,22.5
2018-03-22T04:19:11.368Z,22.6
2018-03-22T04:20:20.131Z,22.6
2018-03-22T04:21:29.231Z,22.69
2018-03-22T04:22:38.555Z,22.5
2018-03-22T04:23:47.608Z,22.6
2018-03-22T04:24:56.627Z,22.89
2018-03-22T04:26:06.135Z,22.6
2018-03-22T04:27:15.194Z,22.6
2018-03-22T04:28:24.187Z,22.6
2018-03-22T04:29:33.438Z,22.79
2018-03-22T04:30:42.403Z,22.89
2018-03-22T04:31:51.165Z,22.89
2018-03-22T04:33:00.421Z,22.79
2018-03-22T04:34:09.485Z,22.79
2018-03-22T04:35:18.960Z,22.89
2018-03-22T04:36:27.638Z,22.89
2018-03-22T04:37:36.432Z,22.89
2018-03-22T04:38:45.457Z,22.89
2018-03-22T04:39:54.699Z,22.89
2018-03-22T04:41:03.946Z,22.89
2018-03-22T04:42:13.046Z,22.89
2018-03-22T04:43:22.130Z,22.89
2018-03-22T04:44:31.124Z,22.89
2018-03-22T04:45:40.329Z,22.89
2018-03-22T04:46:49.634Z,23.37
2018-03-22T04:47:58.381Z,23.08
2018-03-22T04:49:07.372Z,23.08
2018-03-22T04:50:16.364Z,22.99
2018-03-22T04:51:25.340Z,23.08
2018-03-22T04:52:34.307Z,23.18
2018-03-22T04:53:43.525Z,23.08
2018-03-22T04:54:52.753Z,23.18
2018-03-22T04:56:01.699Z,23.08
2018-03-22T04:57:10.688Z,23.18
2018-03-22T04:58:19.499Z,23.18
2018-03-22T04:59:28.517Z,23.07
2018-03-22T05:00:37.552Z,23.08
2018-03-22T05:01:46.918Z,23.27
2018-03-22T05:02:55.671Z,23.08
2018-03-22T05:04:04.410Z,23.37
2018-03-22T05:05:13.427Z,23.18
2018-03-22T05:06:22.186Z,22.99
2018-03-22T05:07:31.137Z,23.08
2018-03-22T05:08:39.831Z,23.27
2018-03-22T05:09:48.823Z,23.36
2018-03-22T05:10:58.318Z,23.16
2018-03-22T05:12:07.294Z,23.16
2018-03-22T05:13:16.044Z,23.27
2018-03-22T05:14:25.254Z,23.26
2018-03-22T05:15:34.480Z,23.26
2018-03-22T05:16:43.209Z,23.26
2018-03-22T05:17:52.165Z,23.26
2018-03-22T05:19:01.179Z,23.26
2018-03-22T05:20:09.889Z,23.26
2018-03-22T05:21:18.595Z,23.37
2018-03-22T05:22:28.097Z,23.16
2018-03-22T05:23:37.058Z,23.16
2018-03-22T05:24:46.648Z,23.26
2018-03-22T05:25:55.836Z,23.16
2018-03-22T05:27:04.815Z,23.26
2018-03-22T05:28:14.063Z,23.27
2018-03-22T05:29:23.298Z,23.36
2018-03-22T05:30:32.496Z,23.36
2018-03-22T05:31:41.993Z,23.16
2018-03-22T05:32:51.172Z,23.16
2018-03-22T05:34:00.366Z,23.16
2018-03-22T05:35:09.315Z,23.26
2018-03-22T05:36:18.252Z,23.26
2018-03-22T05:37:27.486Z,23.36
2018-03-22T05:38:36.474Z,23.26
2018-03-22T05:39:45.510Z,23.16
2018-03-22T05:40:54.828Z,23.16
2018-03-22T05:42:03.833Z,23.16
2018-03-22T05:43:13.073Z,23.36
2018-03-22T05:44:22.075Z,23.46
2018-03-22T05:45:31.636Z,23.46
2018-03-22T05:46:40.916Z,23.36
2018-03-22T05:47:49.644Z,23.36
2018-03-22T05:48:58.632Z,23.65
2018-03-22T05:50:07.690Z,23.55
2018-03-22T05:51:16.625Z,23.55
2018-03-22T05:52:25.892Z,23.55
2018-03-22T05:53:35.400Z,23.55
2018-03-22T05:54:44.224Z,23.26
2018-03-22T05:55:53.729Z,23.36
2018-03-22T05:57:02.689Z,23.36
2018-03-22T05:58:11.920Z,23.65
2018-03-22T05:59:21.678Z,23.26
2018-03-22T06:00:30.388Z,23.46
2018-03-22T06:01:39.728Z,23.36
2018-03-22T06:02:49.518Z,23.36
2018-03-22T06:03:58.490Z,23.36
2018-03-22T06:05:07.491Z,23.36
2018-03-22T06:06:17.010Z,23.36
2018-03-22T06:07:25.965Z,23.46
2018-03-22T06:08:34.961Z,23.46
2018-03-22T06:09:44.199Z,23.36
2018-03-22T06:10:53.977Z,23.26
2018-03-22T06:12:03.014Z,23.46
2018-03-22T06:13:11.729Z,23.46
2018-03-22T06:14:20.780Z,23.55
2018-03-22T06:15:29.496Z,23.55
2018-03-22T06:16:38.752Z,23.55
2018-03-22T06:17:48.241Z,23.46
2018-03-22T06:18:57.500Z,23.46
2018-03-22T06:20:06.492Z,23.46
2018-03-22T06:21:16.261Z,23.36
2018-03-22T06:22:25.210Z,23.36
2018-03-22T06:23:34.222Z,23.16
2018-03-22T06:24:43.172Z,23.55
2018-03-22T06:25:51.879Z,23.46
2018-03-22T06:27:01.620Z,23.18
2018-03-22T06:28:10.876Z,23.26
2018-03-22T06:29:20.040Z,23.55
2018-03-22T06:30:28.762Z,23.27
2018-03-22T06:31:37.459Z,23.26
2018-03-22T06:32:47.096Z,23.36
2018-03-22T06:33:56.006Z,23.46
2018-03-22T06:35:04.987Z,23.46
2018-03-22T06:36:14.456Z,23.16
2018-03-22T06:37:23.713Z,23.36
2018-03-22T06:38:32.414Z,23.26
2018-03-22T06:39:41.150Z,23.26
2018-03-22T06:40:49.879Z,23.26
2018-03-22T06:41:58.845Z,23.26
2018-03-22T06:43:08.091Z,23.16
2018-03-22T06:44:17.076Z,23.36
2018-03-22T06:45:26.029Z,23.46
2018-03-22T06:46:34.996Z,23.36
2018-03-22T06:47:44.247Z,23.36
2018-03-22T06:48:52.952Z,23.55
2018-03-22T06:50:01.669Z,23.46
2018-03-22T06:51:10.868Z,23.46
2018-03-22T06:52:20.097Z,23.46
2018-03-22T06:53:29.053Z,23.46
2018-03-22T06:54:38.040Z,23.36
2018-03-22T06:55:46.991Z,23.46
2018-03-22T06:56:56.052Z,23.55
2018-03-22T06:58:04.996Z,23.55
2018-03-22T06:59:14.447Z,23.26
2018-03-22T07:00:23.164Z,23.65
2018-03-22T07:01:31.835Z,23.55
2018-03-22T07:02:41.035Z,23.84
2018-03-22T07:03:50.520Z,23.55
2018-03-22T07:04:59.706Z,23.65
2018-03-22T07:06:09.211Z,23.55
2018-03-22T07:07:18.153Z,23.46
2018-03-22T07:08:26.812Z,23.46
2018-03-22T07:09:35.782Z,23.55
2018-03-22T07:10:44.727Z,23.55
2018-03-22T07:11:54.015Z,23.55
2018-03-22T07:13:02.996Z,23.55
2018-03-22T07:14:12.301Z,23.65
2018-03-22T07:15:21.280Z,23.74
2018-03-22T07:16:30.220Z,23.65
2018-03-22T07:17:39.136Z,23.46
2018-03-22T07:18:48.062Z,23.46
2018-03-22T07:19:57.519Z,23.27
2018-03-22T07:21:07.012Z,23.18
2018-03-22T07:22:15.980Z,23.08
2018-03-22T07:23:25.469Z,23.08
2018-03-22T07:24:34.206Z,22.61
2018-03-22T07:25:43.433Z,22.71
2018-03-22T07:26:52.435Z,22.71
2018-03-22T07:28:01.439Z,22.52
2018-03-22T07:29:10.653Z,22.52
2018-03-22T07:30:19.622Z,22.61
2018-03-22T07:31:28.421Z,22.24
2018-03-22T07:32:37.426Z,22.14
2018-03-22T07:33:46.732Z,22.33
2018-03-22T07:34:55.979Z,22.24
2018-03-22T07:36:04.732Z,22.33
2018-03-22T07:37:13.806Z,22.14
2018-03-22T07:38:22.811Z,22.34
2018-03-22T07:39:32.344Z,21.86
2018-03-22T07:40:41.979Z,22.05
2018-03-22T07:41:50.726Z,21.96
2018-03-22T07:42:59.690Z,22.15
2018-03-22T07:44:09.258Z,21.86
2018-03-22T07:45:18.799Z,21.77
2018-03-22T07:46:27.776Z,21.88
2018-03-22T07:47:36.592Z,21.68
2018-03-22T07:48:45.948Z,21.2
2018-03-22T07:49:55.209Z,21.39
2018-03-22T07:51:04.183Z,21.48
2018-03-22T07:52:12.929Z,21.58
2018-03-22T07:53:21.989Z,21.48
2018-03-22T07:54:31.000Z,21.68
2018-03-22T07:55:40.027Z,21.58
2018-03-22T07:56:48.979Z,21.68
2018-03-22T07:57:58.523Z,21.5
2018-03-22T07:59:07.485Z,21.5
2018-03-22T08:00:16.401Z,21.48
2018-03-22T08:01:25.902Z,21.48
2018-03-22T08:02:34.902Z,21.48
2018-03-22T08:03:43.948Z,21.48
2018-03-22T08:04:52.914Z,21.21
2018-03-22T08:06:01.870Z,21.31
2018-03-22T08:07:11.160Z,21.59
2018-03-22T08:08:19.873Z,21.48
2018-03-22T08:09:28.836Z,21.88
2018-03-22T08:10:38.290Z,22.06
2018-03-22T08:11:47.738Z,21.88
2018-03-22T08:12:56.965Z,21.78
2018-03-22T08:14:05.974Z,22.06
2018-03-22T08:15:14.900Z,21.97
2018-03-22T08:16:23.892Z,21.78
2018-03-22T08:17:33.350Z,21.97
2018-03-22T08:18:42.299Z,22.16
2018-03-22T08:19:51.318Z,22.16
2018-03-22T08:21:00.288Z,22.36
2018-03-22T08:22:08.977Z,21.97
2018-03-22T08:23:17.932Z,22.16
2018-03-22T08:24:26.692Z,22.26
2018-03-22T08:25:35.391Z,22.36
2018-03-22T08:26:44.702Z,22.36
2018-03-22T08:27:54.203Z,22.36
2018-03-22T08:29:03.417Z,22.36
2018-03-22T08:30:12.413Z,22.36
2018-03-22T08:31:21.432Z,22.36
2018-03-22T08:32:30.651Z,22.36
2018-03-22T08:33:39.620Z,22.36
2018-03-22T08:34:49.357Z,22.64
2018-03-22T08:35:58.193Z,22.53
2018-03-22T08:37:07.158Z,22.44
2018-03-22T08:38:16.412Z,22.45
2018-03-22T08:39:25.450Z,22.44
2018-03-22T08:40:34.676Z,22.63
2018-03-22T08:41:43.537Z,22.44
2018-03-22T08:42:52.837Z,22.44
2018-03-22T08:44:01.785Z,22.73
2018-03-22T08:45:10.743Z,22.73
2018-03-22T08:46:19.981Z,22.83
2018-03-22T08:47:29.035Z,22.73
2018-03-22T08:48:37.783Z,22.73
2018-03-22T08:49:46.773Z,22.73
2018-03-22T08:50:56.044Z,22.63
2018-03-22T08:52:05.285Z,22.53
2018-03-22T08:53:14.287Z,22.63
2018-03-22T08:54:23.531Z,22.63
2018-03-22T08:55:32.266Z,22.63
2018-03-22T08:56:41.772Z,22.63
2018-03-22T08:57:50.766Z,22.63
2018-03-22T08:58:59.776Z,22.83
2018-03-22T09:00:08.509Z,23.4
2018-03-22T09:01:17.529Z,22.92
2018-03-22T09:02:26.762Z,23.21
2018-03-22T09:03:35.994Z,23.21
2018-03-22T09:04:44.950Z,23.02
2018-03-22T09:05:54.191Z,23.1
2018-03-22T09:07:03.147Z,23.1
2018-03-22T09:08:12.668Z,23.11
2018-03-22T09:09:21.597Z,23.11
2018-03-22T09:10:30.869Z,23.02
2018-03-22T09:11:40.183Z,22.92
2018-03-22T09:12:49.140Z,22.92
2018-03-22T09:13:58.089Z,22.92
2018-03-22T09:15:07.287Z,22.53
2018-03-22T09:16:16.766Z,22.73
2018-03-22T09:17:25.977Z,22.63
2018-03-22T09:18:34.924Z,22.83
2018-03-22T09:19:44.415Z,22.73
2018-03-22T09:20:53.366Z,22.73
2018-03-22T09:22:02.340Z,22.73
2018-03-22T09:23:11.115Z,22.73
2018-03-22T09:24:20.334Z,22.34
2018-03-22T09:25:29.370Z,22.34
2018-03-22T09:26:39.166Z,22.55
2018-03-22T09:27:48.192Z,22.53
2018-03-22T09:28:57.767Z,22.45
2018-03-22T09:30:06.752Z,22.36
2018-03-22T09:31:16.540Z,22.45
2018-03-22T09:32:25.756Z,22.45
2018-03-22T09:33:34.976Z,22.64
2018-03-22T09:34:44.053Z,22.55
2018-03-22T09:35:53.308Z,22.45
2018-03-22T09:37:02.535Z,22.55
2018-03-22T09:38:11.802Z,22.55
2018-03-22T09:39:20.537Z,22.45
2018-03-22T09:40:30.030Z,22.55
2018-03-22T09:41:39.284Z,22.55
2018-03-22T09:42:48.273Z,22.45
2018-03-22T09:43:57.868Z,22.45
2018-03-22T09:45:07.196Z,22.45
2018-03-22T09:46:16.409Z,22.45
2018-03-22T09:47:25.180Z,22.36
2018-03-22T09:48:33.908Z,22.45
2018-03-22T09:49:42.624Z,22.45
2018-03-22T09:50:51.673Z,22.55
2018-03-22T09:52:00.883Z,22.45
2018-03-22T09:53:10.109Z,22.55
2018-03-22T09:54:19.729Z,22.36
2018-03-22T09:55:28.742Z,22.45
2018-03-22T09:56:38.005Z,22.64
2018-03-22T09:57:47.061Z,22.74
2018-03-22T09:58:55.997Z,22.74
2018-03-22T10:00:04.992Z,22.84
2018-03-22T10:01:13.753Z,22.83
2018-03-22T10:02:22.988Z,22.74
2018-03-22T10:03:31.971Z,22.64
2018-03-22T10:04:41.472Z,22.83
2018-03-22T10:05:51.009Z,22.63
2018-03-22T10:06:59.997Z,22.63
2018-03-22T10:08:08.999Z,22.73
2018-03-22T10:09:18.014Z,22.73
2018-03-22T10:10:27.320Z,22.53
2018-03-22T10:11:36.575Z,22.63
2018-03-22T10:12:45.857Z,22.92
2018-03-22T10:13:55.082Z,22.92
2018-03-22T10:15:04.383Z,22.92
2018-03-22T10:16:13.866Z,23.02
2018-03-22T10:17:23.669Z,23.21
2018-03-22T10:18:32.650Z,23.31
2018-03-22T10:19:41.927Z,23.21
2018-03-22T10:20:50.912Z,23.11
2018-03-22T10:21:59.637Z,23.11
2018-03-22T10:23:09.182Z,23.11
2018-03-22T10:24:18.175Z,23.11
2018-03-22T10:25:27.154Z,23.21
2018-03-22T10:26:36.365Z,23.31
2018-03-22T10:27:45.044Z,23.4
2018-03-22T10:28:53.732Z,23.31
2018-03-22T10:30:02.977Z,23.21
2018-03-22T10:31:11.686Z,23.4
2018-03-22T10:32:20.420Z,23.31
2018-03-22T10:33:29.411Z,23.4
2018-03-22T10:34:38.368Z,23.31
2018-03-22T10:35:47.653Z,23.21
2018-03-22T10:36:57.004Z,23.31
2018-03-22T10:38:06.754Z,23.21
2018-03-22T10:39:15.740Z,23.31
2018-03-22T10:40:24.747Z,23.4
2018-03-22T10:41:33.969Z,23.21
2018-03-22T10:42:43.183Z,23.11
2018-03-22T10:43:52.212Z,23.21
2018-03-22T10:45:01.457Z,23.21
2018-03-22T10:46:10.132Z,23.11
2018-03-22T10:47:19.616Z,23.02
2018-03-22T10:48:29.160Z,22.73
2018-03-22T10:49:38.299Z,22.83
2018-03-22T10:50:47.498Z,22.73
2018-03-22T10:51:56.240Z,22.53
2018-03-22T10:53:05.564Z,22.63
2018-03-22T10:54:14.591Z,22.73
2018-03-22T10:55:23.548Z,22.83
2018-03-22T10:56:32.796Z,22.84
2018-03-22T10:57:41.775Z,22.55
2018-03-22T10:58:51.073Z,22.36
2018-03-22T11:00:00.043Z,22.45
2018-03-22T11:01:08.836Z,22.55
2018-03-22T11:02:18.114Z,22.55
2018-03-22T11:03:27.634Z,22.55
2018-03-22T11:04:36.345Z,22.64
2018-03-22T11:05:45.361Z,22.45
2018-03-22T11:06:54.836Z,22.55
2018-03-22T11:08:04.337Z,22.64
2018-03-22T11:09:13.287Z,22.55
2018-03-22T11:10:22.020Z,22.45
2018-03-22T11:11:30.997Z,22.45
2018-03-22T11:12:40.518Z,22.55
2018-03-22T11:13:49.526Z,22.55
2018-03-22T11:14:58.917Z,22.36
2018-03-22T11:16:07.880Z,22.45
2018-03-22T11:17:17.121Z,22.36
2018-03-22T11:18:26.134Z,22.36
2018-03-22T11:19:35.439Z,22.36
2018-03-22T11:20:44.489Z,22.64
2018-03-22T11:21:53.739Z,22.84
2018-03-22T11:23:02.997Z,22.74
2018-03-22T11:24:12.432Z,22.74
2018-03-22T11:25:21.361Z,22.84
2018-03-22T11:26:30.551Z,22.74
2018-03-22T11:27:39.810Z,22.64
2018-03-22T11:28:49.299Z,22.74
2018-03-22T11:29:58.553Z,22.93
2018-03-22T11:31:07.802Z,22.93
2018-03-22T11:32:16.518Z,22.64
2018-03-22T11:33:25.186Z,22.64
2018-03-22T11:34:35.058Z,22.74
2018-03-22T11:35:44.272Z,22.64
2018-03-22T11:36:53.514Z,22.55
2018-03-22T11:38:02.772Z,22.55
2018-03-22T11:39:11.970Z,22.92
2018-03-22T11:40:21.247Z,23.03
2018-03-22T11:41:30.342Z,23.02
2018-03-22T11:42:39.341Z,23.11
2018-03-22T11:43:48.880Z,23.02
2018-03-22T11:44:58.183Z,23.11
2018-03-22T11:46:07.163Z,23.21
2018-03-22T11:47:16.120Z,23.11
2018-03-22T11:48:25.839Z,23.11
2018-03-22T11:49:35.330Z,23.11
2018-03-22T11:50:44.286Z,23.11
2018-03-22T11:51:53.613Z,23.4
2018-03-22T11:53:02.909Z,23.31
2018-03-22T11:54:11.654Z,23.31
2018-03-22T11:55:20.444Z,23.21
2018-03-22T11:56:29.505Z,23.21
2018-03-22T11:57:38.461Z,23.31
2018-03-22T11:58:47.178Z,23.5
2018-03-22T11:59:56.436Z,23.5
2018-03-22T12:01:05.924Z,23.6
2018-03-22T12:02:15.152Z,23.4
2018-03-22T12:03:24.141Z,23.4
2018-03-22T12:04:33.425Z,23.4
2018-03-22T12:05:42.550Z,23.4
2018-03-22T12:06:51.530Z,23.4
2018-03-22T12:08:00.507Z,23.5
2018-03-22T12:09:09.527Z,23.5
2018-03-22T12:10:18.500Z,23.21
2018-03-22T12:11:27.493Z,23.5
2018-03-22T12:12:36.496Z,23.5
2018-03-22T12:13:45.265Z,23.31
2018-03-22T12:14:54.733Z,23.21
2018-03-22T12:16:03.508Z,23.31
2018-03-22T12:17:13.050Z,23.11
2018-03-22T12:18:21.749Z,23.11
2018-03-22T12:19:30.463Z,23.02
2018-03-22T12:20:39.676Z,22.63
2018-03-22T12:21:48.966Z,22.53
2018-03-22T12:22:57.659Z,22.74
2018-03-22T12:24:06.365Z,22.64
2018-03-22T12:25:15.608Z,22.74
2018-03-22T12:26:24.378Z,22.74
2018-03-22T12:27:33.607Z,22.84
2018-03-22T12:28:43.096Z,22.74
2018-03-22T12:29:52.342Z,22.45
2018-03-22T12:31:01.619Z,22.45
2018-03-22T12:32:10.437Z,22.45
2018-03-22T12:33:19.432Z,22.74
2018-03-22T12:34:28.700Z,22.36
2018-03-22T12:35:38.246Z,22.55
2018-03-22T12:36:47.829Z,22.55
2018-03-22T12:37:57.134Z,22.45
2018-03-22T12:39:06.454Z,22.36
2018-03-22T12:40:15.453Z,22.55
2018-03-22T12:41:24.718Z,22.45
2018-03-22T12:42:33.946Z,22.36
2018-03-22T12:43:43.264Z,22.84
2018-03-22T12:44:52.592Z,22.64
2018-03-22T12:46:01.288Z,22.74
2018-03-22T12:47:10.032Z,22.64
2018-03-22T12:48:19.011Z,22.64
2018-03-22T12:49:27.773Z,22.84
2018-03-22T12:50:36.733Z,22.74
2018-03-22T12:51:46.216Z,22.84
2018-03-22T12:52:55.457Z,22.74
2018-03-22T12:54:04.672Z,22.74
2018-03-22T12:55:14.157Z,22.64
2018-03-22T12:56:23.371Z,22.84
2018-03-22T12:57:32.604Z,22.93
2018-03-22T12:58:41.560Z,22.64
2018-03-22T12:59:50.587Z,22.74
2018-03-22T13:00:59.545Z,22.64
2018-03-22T13:02:08.519Z,22.64
2018-03-22T13:03:17.195Z,22.64
2018-03-22T13:04:26.208Z,22.45
2018-03-22T13:05:35.664Z,22.84
2018-03-22T13:06:44.336Z,22.84
2018-03-22T13:07:53.539Z,22.84
2018-03-22T13:09:03.032Z,22.93
2018-03-22T13:10:12.575Z,23.13
2018-03-22T13:11:21.810Z,23.13
2018-03-22T13:12:31.025Z,23.13
2018-03-22T13:13:40.534Z,23.21
2018-03-22T13:14:49.357Z,23.22
2018-03-22T13:15:58.426Z,23.22
2018-03-22T13:17:07.123Z,23.11
2018-03-22T13:18:15.848Z,23.21
2018-03-22T13:19:24.883Z,23.4
2018-03-22T13:20:34.387Z,23.4
2018-03-22T13:21:43.486Z,23.31
2018-03-22T13:22:52.778Z,23.31
2018-03-22T13:24:02.058Z,23.31
2018-03-22T13:25:11.347Z,23.5
2018-03-22T13:26:20.564Z,23.6
2018-03-22T13:27:29.365Z,23.4
2018-03-22T13:28:38.642Z,23.5
2018-03-22T13:29:48.142Z,23.4
2018-03-22T13:30:57.521Z,23.4
2018-03-22T13:32:06.747Z,23.5
2018-03-22T13:33:16.232Z,23.6
2018-03-22T13:34:25.225Z,23.31
2018-03-22T13:35:34.743Z,23.21
2018-03-22T13:36:43.962Z,23.31
2018-03-22T13:37:52.915Z,23.31
2018-03-22T13:39:02.138Z,23.31
2018-03-22T13:40:11.097Z,23.21
2018-03-22T13:41:20.640Z,23.31
2018-03-22T13:42:30.140Z,23.31
2018-03-22T13:43:39.443Z,23.21
2018-03-22T13:44:48.973Z,23.31
2018-03-22T13:45:58.228Z,23.5
2018-03-22T13:47:07.698Z,23.31
2018-03-22T13:48:16.997Z,23.4
2018-03-22T13:49:25.796Z,23.21
2018-03-22T13:50:34.526Z,23.21
2018-03-22T13:51:44.101Z,23.11
2018-03-22T13:52:52.815Z,23.02
2018-03-22T13:54:02.081Z,23.11
2018-03-22T13:55:10.748Z,23.02
2018-03-22T13:56:19.689Z,23.03
2018-03-22T13:57:28.877Z,22.55
2018-03-22T13:58:38.077Z,22.64
2018-03-22T13:59:46.758Z,22.64
2018-03-22T14:00:56.285Z,22.64
2018-03-22T14:02:05.740Z,22.84
2018-03-22T14:03:14.684Z,22.74
2018-03-22T14:04:24.440Z,22.74
2018-03-22T14:05:33.411Z,22.84
2018-03-22T14:06:42.425Z,22.84
2018-03-22T14:07:51.411Z,22.84
2018-03-22T14:09:01.217Z,22.74
2018-03-22T14:10:10.453Z,22.74
2018-03-22T14:11:19.955Z,22.74
2018-03-22T14:12:29.161Z,22.74
2018-03-22T14:13:38.089Z,22.84
2018-03-22T14:14:47.044Z,22.74
2018-03-22T14:15:56.522Z,22.64
2018-03-22T14:17:05.737Z,22.84
2018-03-22T14:18:15.044Z,22.84
2018-03-22T14:19:24.070Z,22.74
2018-03-22T14:20:33.038Z,22.74
2018-03-22T14:21:42.290Z,22.74
2018-03-22T14:22:51.488Z,22.84
2018-03-22T14:24:00.222Z,22.84
2018-03-22T14:25:09.832Z,22.84
2018-03-22T14:26:18.774Z,22.74
2018-03-22T14:27:28.279Z,22.64
2018-03-22T14:28:37.494Z,22.74
2018-03-22T14:29:46.467Z,22.64
2018-03-22T14:30:55.430Z,22.55
2018-03-22T14:32:04.406Z,22.74
2018-03-22T14:33:13.630Z,22.64
2018-03-22T14:34:22.596Z,22.74
2018-03-22T14:35:32.386Z,22.74
2018-03-22T14:36:42.167Z,22.64
2018-03-22T14:37:51.161Z,22.55
2018-03-22T14:39:00.380Z,22.55
2018-03-22T14:40:09.850Z,22.93
2018-03-22T14:41:19.117Z,23.32
2018-03-22T14:42:28.335Z,22.93
2018-03-22T14:43:37.136Z,22.93
2018-03-22T14:44:46.667Z,23.13
2018-03-22T14:45:55.685Z,23.13
2018-03-22T14:47:05.210Z,23.13
2018-03-22T14:48:14.527Z,23.13
2018-03-22T14:49:23.834Z,23.13
2018-03-22T14:50:33.000Z,23.13
2018-03-22T14:51:42.019Z,23.13
2018-03-22T14:52:50.708Z,23.13
2018-03-22T14:53:59.388Z,23.32
2018-03-22T14:55:08.666Z,23.22
2018-03-22T14:56:17.782Z,23.21